Flight Track Log - Related Links

Times and Time Zones

All times are in EDT time to prevent confusion due to time zone crossing. See the ASQ5025 flight status page for this flight to view local times or setup timezone preferences in your user account.

Time Position Orientation Groundspeed Altitude Reporting Facility
EDT Latitude Longitude Course Direction KTS MPH feet Rate Location/Type
Mon 09:35:37 AM 40.7481 -73.7769 45° Northeast 244 281 4,500  Level Boston Center
Mon 09:36:37 AM 40.8111 -73.7400 24° Northeast 244 281 6,600 2,550 Climbing Boston Center
Mon 09:37:37 AM 40.8806 -73.6864 30° Northeast 268 308 9,600 2,200 Climbing Boston Center
Mon 09:38:37 AM 40.9603 -73.6331 27° Northeast 294 338 11,000 700 Climbing Boston Center
Mon 09:39:37 AM 41.0419 -73.5822 25° Northeast 320 368 11,000 1,190 Level Boston Center
Mon 09:40:00 AM 41.5895 -73.1474 45° Northeast  Level FlightAware Approximate
Mon 09:40:38 AM 41.1386 -73.5233 25° Northeast 343 395 13,400  Level Boston Center
Mon 09:41:38 AM 41.2203 -73.4750 24° Northeast 343 395 14,900 1,815 Climbing Boston Center
Mon 09:42:37 AM 41.3228 -73.4131 24° Northeast 353 406 17,000 1,866 Climbing Boston Center
Mon 09:43:37 AM 41.4108 -73.3589 25° Northeast 376 433 18,600 1,700 Climbing Boston Center
Mon 09:44:37 AM 41.5094 -73.2856 29° Northeast 389 448 20,400 1,900 Climbing Boston Center
Mon 09:45:37 AM 41.6136 -73.2814 North 366 421 22,400 1,600 Climbing Boston Center
Mon 09:46:37 AM 41.7261 -73.2772 North 379 436 23,600 1,050 Climbing Boston Center
Mon 09:47:37 AM 41.8431 -73.2733 North 400 460 24,500 900 Climbing Boston Center
Mon 09:48:37 AM 41.9658 -73.2694 North 421 484 25,400 950 Climbing Boston Center
Mon 09:49:37 AM 42.0889 -73.2822 356° North 428 493 26,400 1,150 Climbing Boston Center
Mon 09:50:37 AM 42.2156 -73.3286 345° North 434 499 27,700 1,300 Climbing Boston Center
Mon 09:51:37 AM 42.3408 -73.3192 North 434 499 29,000 650 Climbing Boston Center
Mon 09:52:37 AM 42.4533 -73.3011 North 448 516 29,000  Level Boston Center
Mon 09:53:37 AM 42.5786 -73.2858 North 448 516 29,000  Level Boston Center
Mon 09:54:37 AM 42.7142 -73.2878 359° North 442 509 29,000  Level Boston Center
Mon 09:55:37 AM 42.8392 -73.2783 North 442 509 29,000 -250 Level Boston Center
Mon 09:56:37 AM 42.9642 -73.2714 North 442 509 28,500 -800 Descending Boston Center
Mon 09:57:37 AM 43.0872 -73.2589 North 442 509 27,400 -1,100 Descending Boston Center
Mon 09:58:37 AM 43.2167 -73.2519 North 442 509 26,300 -1,650 Descending Boston Center
Mon 09:59:37 AM 43.3417 -73.2422 North 447 514 24,100 -2,300 Descending Boston Center
Mon 10:00:37 AM 43.4458 -73.2350 North 440 506 21,700 -2,500 Descending Boston Center
Mon 10:01:37 AM 43.5647 -73.2222 North 428 493 19,100 -2,450 Descending Boston Center
Mon 10:02:37 AM 43.6794 -73.2153 North 418 481 16,800 -2,450 Descending Boston Center
Mon 10:03:37 AM 43.7900 -73.2050 North 407 468 14,200 -2,800 Descending Boston Center
Mon 10:04:37 AM 43.9044 -73.2036 North 386 444 11,200 -1,850 Descending Boston Center
Mon 10:05:37 AM 44.0067 -73.2078 358° North 364 419 10,500 -1,150 Descending Boston Center
Mon 10:06:37 AM 44.1044 -73.2178 356° North 354 407 8,900 -1,300 Descending Boston Center
Mon 10:07:37 AM 44.1878 -73.2247 357° North 316 364 7,900 -1,300 Descending Boston Center
Mon 10:08:37 AM 44.2689 -73.2461 349° North 292 336 6,300 -1,650 Descending Boston Center
Mon 10:09:37 AM 44.3458 -73.2703 347° North 287 330 4,600 -1,500 Descending Boston Center
Mon 10:10:37 AM 44.4164 -73.2975 345° North 275 316 3,300 -800 Descending Boston Center
Mon 10:11:37 AM 44.4767 -73.3303 339° North 250 288 3,000 -365 Descending Boston Center
Mon 10:13:38 AM 44.5603 -73.2908 19° North 166 191 2,200 -400 Descending Boston Center
Mon 10:14:37 AM 44.5336 -73.2525 134° Southeast 122 140 1,800 -504 Descending Boston Center
Mon 10:15:37 AM 44.5067 -73.2114 133° Southeast 134 154 1,200 -650 Descending Boston Center
Mon 10:16:37 AM 44.4839 -73.1733 130° Southeast 134 154 500 -450 Descending Boston Center
Mon 10:17:37 AM 44.4736 -73.1528 125° Southeast 129 148 300 -200 Descending Boston Center

Login

Don't have an account? Register now (free) for customized features, flight alerts, and more!